Time;durP1;ratioP1;P1;durP2;ratioP2;P2;SDS_P1;SDS_P2;PMS_P1;PMS_P2;Temp;Humidity;BMP_temperature;BMP_pressure;BME280_temperature;BME280_humidity;BME280_pressure;Samples;Min_cycle;Max_cycle;Signal;HPM_P1;HPM_P2
2021/09/05 00:00:22;;;;;;;9.27;7.20;;;16.50;83.10;;;;;;5066934;28;20033;-64
2021/09/05 00:02:47;;;;;;;9.68;7.93;;;16.40;83.10;;;;;;5073693;28;20056;-64
2021/09/05 00:05:13;;;;;;;11.48;8.57;;;16.40;83.30;;;;;;5052549;28;20468;-64
2021/09/05 00:07:38;;;;;;;9.23;7.57;;;16.40;83.40;;;;;;5051161;28;20479;-64
2021/09/05 00:10:05;;;;;;;12.63;9.43;;;16.30;83.60;;;;;;5069227;28;20032;-64
2021/09/05 00:12:30;;;;;;;9.98;7.22;;;16.30;83.70;;;;;;5064041;28;20021;-64
2021/09/05 00:14:56;;;;;;;10.48;7.65;;;16.30;83.90;;;;;;5063652;28;20021;-64
2021/09/05 00:17:22;;;;;;;9.48;7.22;;;16.20;83.90;;;;;;5049272;28;20473;-64
2021/09/05 00:19:47;;;;;;;9.50;7.05;;;16.20;84.10;;;;;;5069220;28;20384;-64
2021/09/05 00:22:13;;;;;;;9.48;7.65;;;16.20;84.30;;;;;;5032772;28;20052;-64
2021/09/05 00:24:38;;;;;;;10.30;7.78;;;16.10;84.40;;;;;;5053061;28;20066;-64
2021/09/05 00:27:04;;;;;;;10.93;7.10;;;16.10;84.60;;;;;;5072255;28;20020;-64
2021/09/05 00:29:29;;;;;;;8.48;6.85;;;16.10;84.70;;;;;;5066814;28;20013;-64
2021/09/05 00:31:55;;;;;;;9.65;7.22;;;16.10;84.80;;;;;;5072097;28;20487;-64
2021/09/05 00:34:21;;;;;;;9.57;6.95;;;16.00;84.90;;;;;;5067718;28;20025;-64
2021/09/05 00:36:47;;;;;;;11.23;7.82;;;16.10;85.00;;;;;;5067226;28;20099;-64
2021/09/05 00:39:12;;;;;;;9.88;7.38;;;16.10;85.10;;;;;;5069866;28;20456;-64
2021/09/05 00:41:53;;;;;;;9.52;7.32;;;16.00;85.20;;;;;;5073487;28;20021;-64
2021/09/05 00:44:19;;;;;;;10.07;6.75;;;16.00;85.40;;;;;;5055267;28;20036;-64
2021/09/05 00:46:45;;;;;;;12.18;7.40;;;16.00;85.50;;;;;;5061874;28;20025;-64
2021/09/05 00:49:11;;;;;;;10.00;7.30;;;15.90;85.60;;;;;;5071708;28;20028;-64
2021/09/05 00:51:39;;;;;;;10.00;7.65;;;15.90;85.70;;;;;;5049715;28;20108;-64
2021/09/05 00:54:06;;;;;;;11.90;7.32;;;15.90;85.90;;;;;;5047711;28;20050;-64
2021/09/05 00:56:35;;;;;;;9.02;6.35;;;15.90;86.10;;;;;;5069569;28;20029;-64
2021/09/05 00:59:05;;;;;;;9.55;7.03;;;15.80;86.00;;;;;;5073463;28;20028;-64
2021/09/05 01:01:31;;;;;;;11.15;7.65;;;15.80;86.10;;;;;;5067303;28;20480;-64
2021/09/05 01:03:56;;;;;;;12.90;7.78;;;15.80;86.40;;;;;;5070731;28;20024;-64
2021/09/05 01:06:22;;;;;;;14.63;8.07;;;15.70;86.40;;;;;;5070245;28;20538;-64
2021/09/05 01:08:48;;;;;;;10.35;7.45;;;15.70;86.60;;;;;;5070749;28;20472;-64
2021/09/05 01:11:17;;;;;;;12.18;7.82;;;15.70;86.80;;;;;;5062676;28;20032;-64
2021/09/05 01:13:43;;;;;;;12.30;7.10;;;15.70;87.00;;;;;;5063428;28;20029;-64
2021/09/05 01:16:22;;;;;;;12.98;8.82;;;15.60;87.00;;;;;;5070501;28;20031;-64
2021/09/05 01:18:47;;;;;;;15.02;9.52;;;15.50;87.10;;;;;;5063291;28;20025;-65
2021/09/05 01:21:13;;;;;;;13.10;9.60;;;15.50;87.60;;;;;;5069008;28;20507;-64
2021/09/05 01:23:38;;;;;;;11.10;9.38;;;15.50;88.00;;;;;;5064252;28;20023;-64
2021/09/05 01:26:04;;;;;;;16.33;10.77;;;15.40;88.40;;;;;;5068719;28;20021;-64
2021/09/05 01:28:30;;;;;;;14.07;9.68;;;15.40;88.80;;;;;;5048836;28;20020;-64
2021/09/05 01:30:56;;;;;;;18.80;11.13;;;15.30;89.00;;;;;;5065651;28;20028;-64
2021/09/05 01:33:21;;;;;;;15.75;10.32;;;15.30;89.40;;;;;;5065448;28;20150;-64
2021/09/05 01:35:47;;;;;;;17.00;10.35;;;15.30;89.60;;;;;;5069366;28;20100;-64
2021/09/05 01:38:12;;;;;;;12.48;9.15;;;15.30;89.90;;;;;;5068638;28;20099;-64
2021/09/05 01:40:38;;;;;;;13.65;9.88;;;15.20;89.90;;;;;;5051302;28;20032;-64
2021/09/05 01:43:03;;;;;;;15.73;9.25;;;15.20;90.00;;;;;;5069529;28;20473;-64
2021/09/05 01:45:29;;;;;;;15.70;9.55;;;15.20;90.00;;;;;;5070472;28;20020;-64
2021/09/05 01:47:54;;;;;;;12.45;8.45;;;15.20;90.00;;;;;;5067877;28;20037;-64
2021/09/05 01:50:20;;;;;;;12.23;8.52;;;15.10;90.00;;;;;;5062555;28;20035;-64
2021/09/05 01:52:46;;;;;;;12.35;8.93;;;15.10;90.00;;;;;;5067811;28;20024;-64
2021/09/05 01:55:11;;;;;;;11.73;7.57;;;15.10;90.00;;;;;;5065123;28;20036;-64
2021/09/05 01:57:37;;;;;;;13.52;9.20;;;15.10;90.10;;;;;;5051701;28;20027;-64
2021/09/05 02:00:03;;;;;;;11.93;8.43;;;15.10;90.10;;;;;;5064166;28;20025;-64
2021/09/05 02:02:29;;;;;;;10.38;7.50;;;15.10;90.10;;;;;;5069127;28;20051;-64
2021/09/05 02:04:54;;;;;;;11.30;8.13;;;15.00;90.10;;;;;;5069725;28;20492;-64
2021/09/05 02:07:20;;;;;;;12.95;8.82;;;15.00;90.20;;;;;;5038155;28;20140;-64
2021/09/05 02:09:45;;;;;;;14.27;8.88;;;15.00;90.20;;;;;;5055850;28;20049;-64
2021/09/05 02:12:11;;;;;;;12.32;8.65;;;15.00;90.30;;;;;;5067317;28;20035;-64
2021/09/05 02:14:36;;;;;;;10.55;7.10;;;14.90;90.30;;;;;;5060818;28;20114;-64
2021/09/05 02:17:02;;;;;;;12.30;8.55;;;14.90;90.30;;;;;;5070488;28;20035;-64
2021/09/05 02:19:29;;;;;;;12.98;8.02;;;14.90;90.40;;;;;;5061049;28;20012;-64
2021/09/05 02:21:54;;;;;;;11.73;8.55;;;14.80;90.40;;;;;;5065649;28;20017;-64
2021/09/05 02:24:20;;;;;;;13.32;7.88;;;14.80;90.50;;;;;;5061354;28;20028;-64
2021/09/05 02:26:45;;;;;;;11.90;8.15;;;14.80;90.50;;;;;;5064061;28;20053;-64
2021/09/05 02:29:11;;;;;;;8.93;6.82;;;14.80;90.50;;;;;;5070036;28;20032;-64
2021/09/05 02:31:36;;;;;;;10.80;7.57;;;14.80;90.50;;;;;;5066492;28;20012;-64
2021/09/05 02:34:02;;;;;;;10.93;7.90;;;14.70;90.50;;;;;;5069590;28;20032;-64
2021/09/05 02:36:27;;;;;;;11.93;6.88;;;14.70;90.60;;;;;;5066101;28;20381;-64
2021/09/05 02:38:53;;;;;;;11.60;7.63;;;14.70;90.60;;;;;;5066488;28;20090;-64
2021/09/05 02:41:19;;;;;;;13.18;7.47;;;14.60;90.60;;;;;;5064659;28;20033;-64
2021/09/05 02:43:44;;;;;;;9.73;6.55;;;14.70;90.60;;;;;;5068700;28;20040;-64
2021/09/05 02:46:10;;;;;;;12.07;7.68;;;14.60;90.90;;;;;;5049584;28;20070;-64
2021/09/05 02:48:35;;;;;;;12.63;7.88;;;14.60;90.60;;;;;;5065949;28;20017;-64
2021/09/05 02:51:01;;;;;;;16.75;8.80;;;14.60;90.60;;;;;;5064331;28;20051;-64
2021/09/05 02:53:26;;;;;;;13.98;9.30;;;14.50;90.70;;;;;;5062593;28;20056;-64
2021/09/05 02:55:52;;;;;;;13.70;9.25;;;14.40;90.80;;;;;;5067986;28;20028;-64
2021/09/05 02:58:17;;;;;;;14.10;9.75;;;14.40;90.90;;;;;;5049285;28;20032;-64
2021/09/05 03:00:43;;;;;;;14.63;9.45;;;14.30;91.00;;;;;;5067562;28;20107;-64
2021/09/05 03:03:08;;;;;;;17.58;11.13;;;14.30;91.10;;;;;;5046640;28;20036;-64
2021/09/05 03:05:34;;;;;;;14.48;9.90;;;14.30;91.20;;;;;;5061316;28;20079;-64
2021/09/05 03:08:00;;;;;;;13.52;9.32;;;14.20;91.40;;;;;;5068060;28;20534;-64
2021/09/05 03:10:25;;;;;;;14.48;8.40;;;14.20;91.40;;;;;;5066911;28;20018;-64
2021/09/05 03:12:51;;;;;;;11.82;8.15;;;14.20;91.50;;;;;;5061710;28;20024;-64
2021/09/05 03:15:16;;;;;;;10.13;7.28;;;14.20;91.50;;;;;;5065682;28;20028;-64
2021/09/05 03:17:42;;;;;;;11.65;7.63;;;14.20;91.40;;;;;;5041472;28;20021;-64
2021/09/05 03:20:08;;;;;;;12.38;7.95;;;14.20;91.40;;;;;;5061656;28;20025;-64
2021/09/05 03:22:39;;;;;;;10.60;7.47;;;14.20;91.40;;;;;;5051093;28;20025;-64
2021/09/05 03:25:05;;;;;;;11.60;7.63;;;14.10;91.40;;;;;;5023363;28;20017;-64
2021/09/05 03:27:30;;;;;;;10.40;7.57;;;14.10;91.50;;;;;;5046135;28;20019;-64
2021/09/05 03:29:56;;;;;;;10.63;7.40;;;14.10;91.50;;;;;;5065870;28;20064;-64
2021/09/05 03:32:21;;;;;;;11.38;7.43;;;14.10;91.50;;;;;;5050311;28;20082;-64
2021/09/05 03:34:47;;;;;;;10.23;7.90;;;14.10;91.50;;;;;;5044382;28;20042;-64
2021/09/05 03:37:12;;;;;;;10.65;7.50;;;14.10;91.50;;;;;;5047847;28;20107;-64
2021/09/05 03:39:38;;;;;;;12.45;7.78;;;14.10;91.50;;;;;;5046477;28;20036;-64
2021/09/05 03:42:04;;;;;;;10.85;7.63;;;14.00;91.50;;;;;;5065704;28;20028;-64
2021/09/05 03:44:30;;;;;;;13.65;9.20;;;13.90;91.60;;;;;;5060546;28;20020;-64
2021/09/05 03:46:55;;;;;;;12.82;8.57;;;13.90;91.60;;;;;;5049833;28;20369;-64
2021/09/05 03:49:21;;;;;;;13.88;9.68;;;13.90;91.70;;;;;;5068693;28;20025;-64
2021/09/05 03:51:46;;;;;;;13.65;8.55;;;13.80;91.70;;;;;;5067401;28;20373;-64
2021/09/05 03:54:12;;;;;;;13.90;9.32;;;13.80;91.80;;;;;;5066279;28;20029;-64
2021/09/05 03:56:37;;;;;;;14.15;8.20;;;13.70;91.80;;;;;;5066053;28;20074;-64
2021/09/05 03:59:03;;;;;;;12.32;7.82;;;13.70;91.90;;;;;;5062801;28;20056;-64
2021/09/05 04:01:31;;;;;;;14.75;9.35;;;13.70;92.00;;;;;;5060905;28;20025;-64
2021/09/05 04:03:56;;;;;;;11.25;7.43;;;13.70;92.00;;;;;;5065002;28;20021;-64
2021/09/05 04:06:22;;;;;;;13.50;8.10;;;13.70;92.00;;;;;;5062026;28;20020;-64
2021/09/05 04:08:49;;;;;;;11.88;7.90;;;13.60;92.00;;;;;;5059986;28;20024;-64
2021/09/05 04:11:15;;;;;;;10.90;7.15;;;13.60;92.00;;;;;;5068126;28;20077;-64
2021/09/05 04:13:41;;;;;;;10.25;7.07;;;13.60;92.10;;;;;;5056506;28;20112;-64
2021/09/05 04:16:06;;;;;;;11.13;7.47;;;13.60;92.10;;;;;;5061282;28;20090;-64
2021/09/05 04:18:32;;;;;;;14.73;9.73;;;13.60;92.10;;;;;;5066344;28;20540;-64
2021/09/05 04:20:58;;;;;;;13.77;8.80;;;13.50;92.10;;;;;;5062396;28;20473;-64
2021/09/05 04:23:23;;;;;;;17.23;10.20;;;13.50;92.20;;;;;;5060368;28;20021;-64
2021/09/05 04:25:49;;;;;;;14.73;9.85;;;13.50;92.40;;;;;;5048319;28;20055;-64
2021/09/05 04:28:14;;;;;;;17.08;10.18;;;13.50;92.50;;;;;;5071866;28;20376;-64
2021/09/05 04:30:40;;;;;;;16.00;10.43;;;13.40;92.60;;;;;;5065466;28;20422;-64
2021/09/05 04:33:05;;;;;;;18.50;11.15;;;13.40;92.70;;;;;;5067482;28;20539;-64
2021/09/05 04:35:31;;;;;;;16.38;10.32;;;13.40;92.90;;;;;;5066131;28;20586;-64
2021/09/05 04:37:57;;;;;;;14.77;9.48;;;13.30;93.00;;;;;;5071007;28;20029;-64
2021/09/05 04:40:23;;;;;;;15.50;9.98;;;13.30;93.10;;;;;;5049864;28;20396;-64
2021/09/05 04:42:48;;;;;;;15.38;10.45;;;13.30;93.20;;;;;;5067369;28;20025;-64
2021/09/05 04:45:14;;;;;;;18.85;11.35;;;13.20;93.30;;;;;;5071639;28;20460;-64
2021/09/05 04:47:39;;;;;;;15.45;10.60;;;13.20;93.40;;;;;;5065675;28;20033;-64
2021/09/05 04:50:05;;;;;;;15.40;10.07;;;13.20;93.50;;;;;;5043070;28;20047;-64
2021/09/05 04:52:31;;;;;;;17.42;10.38;;;13.10;93.50;;;;;;5071446;28;20036;-64
2021/09/05 04:54:56;;;;;;;14.20;9.65;;;13.10;93.60;;;;;;5070695;28;20033;-64
2021/09/05 04:57:22;;;;;;;16.90;11.32;;;13.10;93.70;;;;;;5065734;28;20024;-64
2021/09/05 04:59:47;;;;;;;15.45;10.90;;;13.10;93.80;;;;;;5035823;28;20028;-64
2021/09/05 05:02:13;;;;;;;16.95;11.07;;;13.00;93.90;;;;;;5050939;28;20025;-64
2021/09/05 05:04:38;;;;;;;17.10;11.27;;;13.00;94.10;;;;;;5051760;28;20013;-64
2021/09/05 05:07:04;;;;;;;18.58;11.35;;;13.00;94.20;;;;;;5071900;28;20524;-63
2021/09/05 05:09:29;;;;;;;16.90;11.20;;;13.00;94.40;;;;;;5070362;28;20095;-64
2021/09/05 05:11:55;;;;;;;16.95;11.75;;;13.00;94.40;;;;;;5067931;28;20358;-64
2021/09/05 05:14:20;;;;;;;15.75;10.27;;;13.00;94.50;;;;;;5067175;28;20028;-64
2021/09/05 05:16:46;;;;;;;17.50;10.98;;;13.00;94.50;;;;;;5067784;28;20059;-64
2021/09/05 05:19:11;;;;;;;16.17;9.80;;;12.90;94.50;;;;;;5063314;28;20036;-64
2021/09/05 05:21:37;;;;;;;13.57;8.82;;;12.90;94.50;;;;;;5069326;28;20040;-64
2021/09/05 05:24:03;;;;;;;14.10;8.95;;;12.90;94.50;;;;;;5064176;28;20032;-64
2021/09/05 05:26:28;;;;;;;15.30;9.68;;;12.90;94.50;;;;;;5070096;28;20016;-64
2021/09/05 05:28:55;;;;;;;17.05;10.15;;;12.90;94.50;;;;;;5067696;28;20104;-64
2021/09/05 05:31:21;;;;;;;15.50;9.23;;;12.90;94.50;;;;;;5069903;28;20048;-63
2021/09/05 05:33:46;;;;;;;14.82;10.10;;;12.90;94.60;;;;;;5045529;28;20121;-64
2021/09/05 05:36:12;;;;;;;17.65;10.77;;;12.90;94.60;;;;;;5065737;28;20040;-64
2021/09/05 05:38:40;;;;;;;18.92;11.98;;;12.90;94.70;;;;;;5068877;28;20056;-64
2021/09/05 05:41:07;;;;;;;14.98;10.52;;;13.00;94.80;;;;;;5050102;28;20036;-64
2021/09/05 05:46:42;;;;;;;16.30;10.50;;;13.00;94.90;;;;;;5045402;28;20094;-64
2021/09/05 05:49:07;;;;;;;15.77;10.93;;;12.90;95.00;;;;;;5044406;28;20025;-64
2021/09/05 05:51:33;;;;;;;19.75;11.30;;;13.00;95.20;;;;;;5060447;28;20094;-63
2021/09/05 05:53:58;;;;;;;14.80;11.05;;;13.00;95.30;;;;;;5064290;28;20033;-63
2021/09/05 05:56:35;;;;;;;17.63;11.15;;;13.00;95.50;;;;;;5046703;28;20104;-64
2021/09/05 05:59:00;;;;;;;20.60;12.43;;;13.00;95.50;;;;;;5071211;28;20027;-64
2021/09/05 06:01:26;;;;;;;18.25;12.00;;;13.00;95.70;;;;;;5060252;28;20112;-64
2021/09/05 06:04:14;;;;;;;18.27;11.35;;;13.10;95.70;;;;;;5065481;28;20107;-63
2021/09/05 06:06:40;;;;;;;19.33;11.40;;;13.10;95.80;;;;;;5043544;28;20090;-64
2021/09/05 06:09:06;;;;;;;19.70;12.10;;;13.10;95.80;;;;;;5064166;28;20016;-63
2021/09/05 06:11:31;;;;;;;16.98;11.52;;;13.20;95.90;;;;;;5066958;28;20106;-64
2021/09/05 06:13:57;;;;;;;20.13;13.13;;;13.20;95.90;;;;;;5062236;28;20116;-63
2021/09/05 06:16:23;;;;;;;17.77;11.10;;;13.20;96.10;;;;;;5059155;28;20023;-64
2021/09/05 06:18:48;;;;;;;20.38;11.70;;;13.20;96.20;;;;;;5063415;28;20440;-64
2021/09/05 06:21:14;;;;;;;18.35;11.45;;;13.30;96.20;;;;;;5064192;28;20438;-64
2021/09/05 06:23:40;;;;;;;14.40;10.75;;;13.30;96.30;;;;;;5066533;28;20031;-64
2021/09/05 06:26:05;;;;;;;17.90;12.57;;;13.30;96.30;;;;;;5047080;28;20025;-64
2021/09/05 06:28:31;;;;;;;19.55;12.05;;;13.40;96.40;;;;;;5071880;28;20043;-64
2021/09/05 06:30:56;;;;;;;19.60;12.20;;;13.40;96.40;;;;;;5066879;28;20384;-64
2021/09/05 06:33:22;;;;;;;19.83;13.05;;;13.40;96.50;;;;;;5064063;28;20163;-64
2021/09/05 06:35:47;;;;;;;19.70;11.23;;;13.40;96.50;;;;;;5063803;28;20104;-64
2021/09/05 06:38:13;;;;;;;19.45;12.25;;;13.50;96.60;;;;;;5067122;28;20032;-64
2021/09/05 06:40:39;;;;;;;17.55;11.90;;;13.50;96.60;;;;;;5067035;28;20048;-64
2021/09/05 06:43:04;;;;;;;16.13;11.48;;;13.50;96.60;;;;;;5066488;28;20032;-64
2021/09/05 06:45:30;;;;;;;16.10;10.98;;;13.60;96.60;;;;;;5063048;28;20020;-64
2021/09/05 06:47:56;;;;;;;20.23;12.02;;;13.60;96.60;;;;;;5062907;28;20028;-64
2021/09/05 06:50:21;;;;;;;18.20;11.63;;;13.70;96.70;;;;;;5060884;28;20103;-64
2021/09/05 06:52:47;;;;;;;19.48;12.27;;;13.70;96.80;;;;;;5063026;28;20388;-64
2021/09/05 06:55:12;;;;;;;17.13;12.00;;;13.80;96.80;;;;;;5067680;28;20028;-63
2021/09/05 06:57:38;;;;;;;17.85;11.25;;;13.80;96.80;;;;;;5064790;28;20070;-64
2021/09/05 07:00:04;;;;;;;18.88;11.23;;;13.80;96.70;;;;;;5067624;28;20082;-64
2021/09/05 07:02:30;;;;;;;18.10;11.98;;;13.90;96.70;;;;;;5066317;28;20027;-64
2021/09/05 07:04:55;;;;;;;18.00;11.27;;;13.90;96.70;;;;;;5063543;28;20017;-64
2021/09/05 07:07:21;;;;;;;18.10;12.98;;;14.00;96.70;;;;;;5068498;28;20028;-64
2021/09/05 07:09:46;;;;;;;14.88;10.63;;;14.00;96.60;;;;;;5068819;28;20041;-64
2021/09/05 07:12:12;;;;;;;19.80;12.93;;;14.10;96.60;;;;;;5070594;28;20064;-64
2021/09/05 07:14:37;;;;;;;16.75;11.77;;;14.10;96.60;;;;;;5043356;28;20040;-64
2021/09/05 07:17:03;;;;;;;16.60;11.55;;;14.20;96.60;;;;;;5057530;28;20024;-64
2021/09/05 07:19:29;;;;;;;19.98;12.00;;;14.20;96.50;;;;;;5064443;28;20028;-63
2021/09/05 07:21:54;;;;;;;16.17;10.90;;;14.20;96.50;;;;;;5072302;28;20025;-64
2021/09/05 07:24:20;;;;;;;17.45;11.00;;;14.30;96.50;;;;;;5071201;28;20487;-64
2021/09/05 07:26:45;;;;;;;17.92;11.95;;;14.40;96.50;;;;;;5069779;28;20059;-64
2021/09/05 07:29:12;;;;;;;15.85;10.05;;;14.40;96.40;;;;;;5052611;28;20032;-64
2021/09/05 07:31:37;;;;;;;16.08;10.50;;;14.50;96.40;;;;;;5066369;28;20041;-63
2021/09/05 07:34:03;;;;;;;18.00;10.63;;;14.60;96.30;;;;;;5069353;28;20028;-64
2021/09/05 07:36:28;;;;;;;15.00;10.80;;;14.60;96.20;;;;;;5069660;28;20059;-64
2021/09/05 07:38:54;;;;;;;16.67;10.27;;;14.60;96.20;;;;;;5049866;28;20017;-64
2021/09/05 07:41:19;;;;;;;16.83;11.70;;;14.70;96.10;;;;;;5068021;28;20407;-64
2021/09/05 07:43:45;;;;;;;16.15;10.40;;;14.80;96.00;;;;;;5070703;28;20028;-64
2021/09/05 07:46:10;;;;;;;16.60;11.13;;;14.80;95.90;;;;;;5070398;28;20044;-64
2021/09/05 07:48:36;;;;;;;15.65;10.30;;;14.90;95.90;;;;;;5069894;28;20074;-63
2021/09/05 07:51:01;;;;;;;15.00;9.73;;;15.00;95.80;;;;;;5070641;28;20029;-64
2021/09/05 07:53:27;;;;;;;15.52;10.25;;;15.00;95.60;;;;;;5067106;28;20017;-64
2021/09/05 07:56:14;;;;;;;17.58;10.88;;;15.10;95.50;;;;;;5071083;28;20437;-64
2021/09/05 07:58:40;;;;;;;18.33;10.63;;;15.20;95.30;;;;;;5051777;28;20029;-63
2021/09/05 08:01:05;;;;;;;14.75;10.95;;;15.20;95.20;;;;;;5074392;28;20025;-64
2021/09/05 08:03:37;;;;;;;17.85;10.68;;;15.30;95.10;;;;;;5074652;28;20028;-64
2021/09/05 08:06:02;;;;;;;19.27;10.93;;;15.40;95.00;;;;;;5074092;28;20472;-64
2021/09/05 08:08:28;;;;;;;16.25;10.07;;;15.40;94.80;;;;;;5072041;28;20056;-64
2021/09/05 08:10:54;;;;;;;15.52;9.93;;;15.50;94.70;;;;;;5051766;28;20020;-64
2021/09/05 08:13:28;;;;;;;15.60;10.10;;;15.60;94.60;;;;;;5055126;28;20078;-64
2021/09/05 08:15:54;;;;;;;14.98;9.32;;;15.70;94.50;;;;;;5069064;28;20384;-64
2021/09/05 08:18:19;;;;;;;19.25;9.88;;;15.70;94.40;;;;;;5055296;28;20506;-64
2021/09/05 08:20:45;;;;;;;17.05;10.00;;;15.80;94.30;;;;;;5074600;28;20024;-64
2021/09/05 08:23:10;;;;;;;16.58;10.57;;;15.90;94.20;;;;;;5072100;28;20064;-64
2021/09/05 08:25:36;;;;;;;13.88;8.77;;;16.00;94.10;;;;;;5057350;28;20052;-64
2021/09/05 08:28:01;;;;;;;13.80;9.30;;;16.00;94.00;;;;;;5075055;28;20028;-64
2021/09/05 08:30:27;;;;;;;11.57;8.45;;;16.10;93.90;;;;;;5057471;28;20021;-64
2021/09/05 08:32:52;;;;;;;11.50;8.23;;;16.20;93.80;;;;;;5055378;28;20029;-64
2021/09/05 08:35:18;;;;;;;13.75;9.07;;;16.30;93.70;;;;;;5055630;28;20498;-64
2021/09/05 08:37:52;;;;;;;14.40;9.02;;;16.40;93.60;;;;;;5055490;28;20029;-64
2021/09/05 08:40:18;;;;;;;13.20;8.73;;;16.50;93.50;;;;;;5055082;28;20052;-64
2021/09/05 08:42:44;;;;;;;10.07;7.30;;;16.50;93.40;;;;;;5055232;28;20025;-64
2021/09/05 08:45:10;;;;;;;14.52;9.45;;;16.60;93.30;;;;;;5055211;28;20079;-64
2021/09/05 08:47:36;;;;;;;13.82;8.52;;;16.70;93.10;;;;;;5055207;28;20025;-64
2021/09/05 08:50:04;;;;;;;11.90;8.23;;;16.80;93.00;;;;;;5054930;28;20025;-64
2021/09/05 08:52:29;;;;;;;11.82;8.43;;;16.90;93.10;;;;;;5054779;28;20063;-64
2021/09/05 08:54:55;;;;;;;11.75;8.18;;;16.90;92.70;;;;;;5055098;28;20021;-64
2021/09/05 08:57:20;;;;;;;12.98;8.20;;;17.00;92.60;;;;;;5055027;28;20025;-64
2021/09/05 08:59:46;;;;;;;11.63;8.10;;;17.10;92.50;;;;;;5054962;28;20028;-64
2021/09/05 09:02:11;;;;;;;12.63;7.88;;;17.20;92.30;;;;;;5054478;28;20032;-64
2021/09/05 09:04:42;;;;;;;9.65;7.45;;;17.30;92.20;;;;;;5067644;28;20033;-64
2021/09/05 09:07:11;;;;;;;13.60;8.43;;;17.40;92.00;;;;;;5073921;28;20027;-64
2021/09/05 09:09:43;;;;;;;12.40;8.38;;;17.50;91.80;;;;;;5074144;28;20039;-64
2021/09/05 09:12:08;;;;;;;14.85;8.68;;;17.50;91.60;;;;;;5070906;28;20033;-64
2021/09/05 09:14:44;;;;;;;12.20;7.90;;;17.60;91.50;;;;;;5073127;28;20112;-64
2021/09/05 09:17:14;;;;;;;10.13;6.82;;;17.70;91.30;;;;;;5073484;28;20047;-64
2021/09/05 09:19:45;;;;;;;11.70;7.65;;;17.80;91.20;;;;;;5070606;28;20962;-64
2021/09/05 09:22:20;;;;;;;13.27;8.05;;;17.90;91.00;;;;;;5038953;28;20496;-64
2021/09/05 09:24:47;;;;;;;13.82;9.30;;;18.00;90.70;;;;;;5070939;28;20024;-64
2021/09/05 09:27:13;;;;;;;11.45;7.35;;;18.10;90.60;;;;;;5070766;28;20033;-64
2021/09/05 09:29:39;;;;;;;12.95;8.43;;;18.20;90.50;;;;;;5073505;28;20476;-64
2021/09/05 09:32:15;;;;;;;12.88;8.25;;;18.20;90.10;;;;;;5073011;28;20020;-64
2021/09/05 09:34:43;;;;;;;11.35;7.55;;;18.30;89.80;;;;;;5066695;28;20035;-64
2021/09/05 09:37:14;;;;;;;11.55;7.55;;;18.40;90.00;;;;;;5047971;28;20047;-64
2021/09/05 09:39:47;;;;;;;10.90;7.70;;;18.50;89.30;;;;;;5070656;28;20041;-64
2021/09/05 09:42:36;;;;;;;13.57;7.97;;;18.60;89.20;;;;;;5073143;28;20550;-64
2021/09/05 09:45:17;;;;;;;13.50;7.75;;;18.70;88.60;;;;;;5073209;28;20485;-64
2021/09/05 09:47:44;;;;;;;13.63;8.23;;;18.80;88.00;;;;;;5052685;28;20070;-64
2021/09/05 09:50:11;;;;;;;11.70;8.25;;;18.80;87.70;;;;;;5073336;28;20021;-64
2021/09/05 09:52:37;;;;;;;11.75;7.68;;;18.90;87.60;;;;;;5051940;28;20362;-64
2021/09/05 09:55:04;;;;;;;12.35;8.60;;;19.10;87.50;;;;;;5070712;28;20503;-64
2021/09/05 09:57:30;;;;;;;12.57;8.25;;;19.20;87.00;;;;;;5061388;28;20032;-64
2021/09/05 09:59:55;;;;;;;12.30;7.57;;;19.30;85.80;;;;;;5053631;28;20021;-64
2021/09/05 10:02:25;;;;;;;11.30;6.78;;;19.30;85.50;;;;;;5053601;28;20531;-64
2021/09/05 10:04:51;;;;;;;;;;;19.50;85.10;;;;;;5053956;28;20009;-64
2021/09/05 10:07:18;;;;;;;13.00;7.88;;;19.60;85.00;;;;;;5058063;28;20356;-64
2021/09/05 10:09:47;;;;;;;13.55;7.88;;;19.70;84.10;;;;;;5073408;28;20485;-64
2021/09/05 10:12:14;;;;;;;13.05;7.50;;;19.90;83.30;;;;;;5061519;28;20039;-64
2021/09/05 10:14:40;;;;;;;9.60;6.45;;;20.00;82.50;;;;;;5055878;28;20031;-64
2021/09/05 10:17:07;;;;;;;10.75;6.57;;;20.10;82.50;;;;;;5058841;28;20031;-64
2021/09/05 10:19:37;;;;;;;10.70;7.15;;;20.30;81.80;;;;;;5066767;28;20086;-64
2021/09/05 10:22:03;;;;;;;10.40;6.47;;;20.50;81.00;;;;;;5053786;28;20108;-64
2021/09/05 10:24:59;;;;;;;;;;;;;;;;;;;;;
2021/09/05 10:27:37;;;;;;;8.60;5.72;;;20.90;80.10;;;;;;5065722;28;20028;-65
2021/09/05 10:30:05;;;;;;;10.98;6.57;;;21.00;79.20;;;;;;5053346;28;20031;-64
2021/09/05 10:32:58;;;;;;;9.57;6.03;;;21.20;78.70;;;;;;5053160;28;20957;-64
2021/09/05 10:35:26;;;;;;;7.95;5.57;;;21.50;77.90;;;;;;5053342;28;20067;-64
2021/09/05 10:38:10;;;;;;;8.30;6.10;;;21.70;76.70;;;;;;5043352;28;20087;-64
2021/09/05 10:41:05;;;;;;;8.73;6.15;;;21.90;75.70;;;;;;5051147;28;20120;-65
2021/09/05 10:43:49;;;;;;;8.65;5.88;;;22.10;75.10;;;;;;5053256;28;20036;-64
2021/09/05 10:46:16;;;;;;;10.43;6.57;;;22.40;74.70;;;;;;5053018;28;20025;-65
2021/09/05 10:49:27;;;;;;;;;;;;;;;;;;;;;
2021/09/05 10:51:53;;;;;;;7.03;5.20;;;23.00;73.40;;;;;;5046158;28;20035;-65
2021/09/05 10:54:27;;;;;;;7.30;5.10;;;23.40;74.20;;;;;;5054857;28;20112;-65
2021/09/05 10:56:55;;;;;;;7.68;5.18;;;24.10;74.20;;;;;;5069395;28;20091;-65
2021/09/05 10:59:22;;;;;;;5.63;4.05;;;26.10;71.40;;;;;;5072135;28;20035;-65
2021/09/05 11:01:48;;;;;;;7.28;5.03;;;28.70;66.20;;;;;;5068930;28;20070;-65
2021/09/05 11:04:24;;;;;;;8.00;6.03;;;30.60;58.90;;;;;;5053327;28;20468;-65
2021/09/05 11:07:06;;;;;;;10.27;5.75;;;32.20;53.60;;;;;;5069655;28;20380;-65
2021/09/05 11:09:31;;;;;;;7.88;5.93;;;33.60;49.90;;;;;;5071862;28;20074;-65
2021/09/05 11:12:15;;;;;;;5.50;4.78;;;33.60;49.10;;;;;;5054390;28;20028;-65
2021/09/05 11:14:42;;;;;;;6.68;5.30;;;33.50;49.00;;;;;;5062951;28;20105;-65
2021/09/05 11:17:08;;;;;;;5.88;4.90;;;33.60;48.60;;;;;;5056554;28;20025;-65
2021/09/05 11:19:45;;;;;;;6.35;5.18;;;33.60;48.60;;;;;;5071856;28;20028;-66
2021/09/05 11:22:32;;;;;;;7.35;5.65;;;34.00;48.60;;;;;;5070256;28;20032;-65
2021/09/05 11:25:28;;;;;;;8.32;6.35;;;35.00;47.60;;;;;;5069924;28;20103;-66
2021/09/05 11:28:04;;;;;;;7.07;5.63;;;36.50;45.30;;;;;;5070122;28;20365;-66
2021/09/05 11:30:31;;;;;;;6.15;5.53;;;37.90;43.80;;;;;;5071733;28;20384;-66
2021/09/05 11:32:59;;;;;;;6.60;5.95;;;39.10;42.10;;;;;;5065406;28;20017;-66
2021/09/05 11:35:24;;;;;;;6.72;6.03;;;40.40;41.10;;;;;;5071035;28;20027;-66
2021/09/05 11:37:58;;;;;;;5.80;4.95;;;41.20;38.30;;;;;;5075716;28;20024;-66
2021/09/05 11:40:24;;;;;;;6.05;5.45;;;42.10;38.00;;;;;;5075429;28;20044;-66
2021/09/05 11:42:52;;;;;;;6.97;6.10;;;43.10;37.60;;;;;;5060762;28;20036;-66
2021/09/05 11:45:19;;;;;;;5.97;5.47;;;43.90;36.00;;;;;;5056118;28;20021;-66
2021/09/05 11:47:45;;;;;;;6.03;5.43;;;44.70;35.60;;;;;;5075337;28;20081;-66
2021/09/05 11:50:12;;;;;;;6.35;5.75;;;45.70;35.00;;;;;;5075510;28;20262;-66
2021/09/05 11:52:40;;;;;;;6.35;5.75;;;46.50;33.40;;;;;;5053978;28;20017;-66
2021/09/05 11:55:13;;;;;;;;;;;47.00;33.10;;;;;;5075584;28;20032;-66
2021/09/05 11:57:51;;;;;;;7.32;6.05;;;47.50;33.00;;;;;;5074195;28;19912;-66
2021/09/05 12:00:31;;;;;;;7.22;6.38;;;48.10;32.60;;;;;;5056269;28;20365;-66
2021/09/05 12:02:58;;;;;;;5.78;4.97;;;48.50;32.00;;;;;;5057955;28;20067;-66
2021/09/05 12:05:24;;;;;;;7.05;5.57;;;48.90;31.80;;;;;;5069937;28;20516;-66
2021/09/05 12:07:50;;;;;;;6.20;5.60;;;49.40;31.50;;;;;;5055990;28;20032;-66
2021/09/05 12:10:18;;;;;;;6.88;6.18;;;50.00;31.40;;;;;;5056021;28;20377;-66
2021/09/05 12:12:55;;;;;;;7.18;6.53;;;49.70;29.80;;;;;;5055522;28;20052;-66
2021/09/05 12:15:21;;;;;;;7.28;6.65;;;49.70;30.10;;;;;;5069686;28;20603;-66
2021/09/05 12:18:13;;;;;;;7.53;6.18;;;50.10;30.00;;;;;;5055776;28;20099;-66
2021/09/05 12:20:42;;;;;;;6.22;5.72;;;50.60;29.90;;;;;;5055936;28;20025;-65
2021/09/05 12:23:19;;;;;;;7.22;6.63;;;50.40;29.70;;;;;;5055658;28;20025;-65
2021/09/05 12:25:45;;;;;;;7.18;6.50;;;50.60;29.80;;;;;;5037781;28;20021;-65
2021/09/05 12:28:11;;;;;;;6.72;6.20;;;50.50;29.70;;;;;;5055644;28;20036;-65
2021/09/05 12:30:54;;;;;;;6.90;6.40;;;50.60;29.60;;;;;;5055643;28;20029;-65
2021/09/05 12:33:25;;;;;;;7.28;6.68;;;50.10;29.50;;;;;;5055459;28;20032;-65
2021/09/05 12:35:52;;;;;;;6.80;6.25;;;49.60;29.40;;;;;;5064976;28;20025;-65
2021/09/05 12:38:35;;;;;;;8.07;7.43;;;49.30;29.50;;;;;;5070770;28;20388;-65
2021/09/05 12:41:12;;;;;;;7.60;7.00;;;48.60;29.20;;;;;;5054713;28;20519;-65
2021/09/05 12:43:51;;;;;;;8.30;7.50;;;48.40;29.70;;;;;;5055311;28;20029;-65